Time;durP1;ratioP1;P1;durP2;ratioP2;P2;SDS_P1;SDS_P2;PMS_P1;PMS_P2;Temp;Humidity;BMP_temperature;BMP_pressure;BME280_temperature;BME280_humidity;BME280_pressure;Samples;Min_cycle;Max_cycle;Signal;HPM_P1;HPM_P2
2023/09/14 00:00:45;;;;;;;8.00;6.57;;;18.80;84.90;;;17.51;100.00;96294.28;6088760;23;20026;-65
2023/09/14 00:03:10;;;;;;;7.72;6.78;;;18.80;85.10;;;17.52;100.00;96295.91;6064794;23;20023;-64
2023/09/14 00:05:43;;;;;;;10.32;6.50;;;18.80;84.90;;;17.50;100.00;96294.50;6041414;23;20036;-65
2023/09/14 00:08:10;;;;;;;8.45;6.50;;;18.70;84.50;;;17.48;100.00;96301.91;6065431;23;20015;-65
2023/09/14 00:10:36;;;;;;;7.60;6.80;;;18.70;84.50;;;17.46;100.00;96294.16;6065906;23;20392;-65
2023/09/14 00:13:02;;;;;;;9.43;6.68;;;18.70;84.70;;;17.46;100.00;96299.47;6088146;23;20021;-64
2023/09/14 00:15:29;;;;;;;9.43;6.93;;;18.70;84.90;;;17.44;100.00;96301.56;6089101;23;20022;-64
2023/09/14 00:17:54;;;;;;;8.93;6.78;;;18.60;84.90;;;17.42;100.00;96303.59;6016976;23;20018;-64
2023/09/14 00:20:26;;;;;;;8.00;7.10;;;18.60;84.80;;;17.39;100.00;96307.53;6089207;23;20421;-65
2023/09/14 00:22:54;;;;;;;8.18;6.95;;;18.60;85.00;;;17.37;100.00;96312.28;6090488;23;20007;-64
2023/09/14 00:25:20;;;;;;;8.50;7.25;;;18.50;85.20;;;17.34;100.00;96309.25;6065420;23;20116;-65
2023/09/14 00:27:47;;;;;;;7.03;6.32;;;18.60;85.30;;;17.33;100.00;96303.13;6040468;23;20022;-64
2023/09/14 00:30:13;;;;;;;8.68;7.57;;;18.60;85.20;;;17.33;100.00;96302.31;6017592;23;20015;-65
2023/09/14 00:32:40;;;;;;;8.05;7.25;;;18.60;85.10;;;17.30;100.00;96289.47;6063179;23;20400;-65
2023/09/14 00:35:12;;;;;;;8.60;7.70;;;18.60;85.30;;;17.30;100.00;96292.13;6064920;23;20010;-65
2023/09/14 00:37:38;;;;;;;8.57;7.65;;;18.60;85.30;;;17.29;100.00;96298.50;6091059;23;20578;-64
2023/09/14 00:40:08;;;;;;;8.30;7.50;;;18.50;85.20;;;17.29;100.00;96287.84;6064419;23;20029;-64
2023/09/14 00:42:45;;;;;;;9.60;7.97;;;18.50;85.40;;;17.26;100.00;96294.44;6042002;23;20025;-65
2023/09/14 00:45:13;;;;;;;10.27;8.02;;;18.50;85.40;;;17.22;100.00;96287.16;6088958;23;20738;-65
2023/09/14 00:47:53;;;;;;;10.20;8.82;;;18.50;85.50;;;17.21;100.00;96290.84;6065164;23;20026;-65
2023/09/14 00:50:19;;;;;;;8.48;7.68;;;18.40;85.50;;;17.18;100.00;96297.41;6067800;23;20459;-65
2023/09/14 00:52:49;;;;;;;10.00;8.55;;;18.40;85.60;;;17.16;100.00;96299.47;6041330;23;20007;-64
2023/09/14 00:55:17;;;;;;;9.93;8.93;;;18.40;85.60;;;17.14;100.00;96291.72;6042450;23;20029;-64
2023/09/14 00:57:43;;;;;;;10.77;9.35;;;18.40;85.60;;;17.10;100.00;96295.88;6065416;23;20368;-64
2023/09/14 01:00:12;;;;;;;12.45;8.88;;;18.30;85.70;;;17.08;100.00;96292.63;6064974;23;20086;-65
2023/09/14 01:02:39;;;;;;;13.23;9.00;;;18.30;85.70;;;17.06;100.00;96289.41;6065951;23;20014;-65
2023/09/14 01:05:06;;;;;;;11.90;8.20;;;18.30;85.70;;;17.04;100.00;96278.19;6064791;23;20380;-65
2023/09/14 01:07:32;;;;;;;9.75;8.18;;;18.30;85.60;;;17.02;100.00;96282.91;6041957;23;20010;-65
2023/09/14 01:09:58;;;;;;;11.07;8.77;;;18.20;85.60;;;16.99;100.00;96283.38;6062049;23;20018;-65
2023/09/14 01:12:23;;;;;;;11.52;9.45;;;18.20;85.60;;;16.96;100.00;96283.78;6063999;23;20746;-65
2023/09/14 01:15:09;;;;;;;11.18;9.00;;;18.10;85.90;;;16.95;100.00;96284.81;6016976;23;20681;-64
2023/09/14 01:18:00;;;;;;;11.68;9.50;;;18.10;85.90;;;16.91;100.00;96281.00;6068035;23;20014;-65
2023/09/14 01:20:59;;;;;;;10.70;8.68;;;18.10;86.00;;;16.89;100.00;96287.56;6088723;23;20011;-64
2023/09/14 01:23:48;;;;;;;10.10;9.10;;;18.10;85.90;;;16.86;100.00;96283.53;6089745;23;20018;-65
2023/09/14 01:26:15;;;;;;;10.73;9.52;;;18.10;85.90;;;16.82;100.00;96293.78;6066502;23;20101;-65
2023/09/14 01:28:40;;;;;;;11.00;9.23;;;18.10;86.00;;;16.82;100.00;96292.97;6040950;23;20021;-65
2023/09/14 01:31:06;;;;;;;11.65;10.23;;;18.00;86.10;;;16.81;100.00;96294.00;6087453;23;20010;-65
2023/09/14 01:33:32;;;;;;;14.48;9.60;;;18.10;86.20;;;16.79;100.00;96288.91;6085844;23;20030;-65
2023/09/14 01:36:53;;;;;;;11.60;10.20;;;18.10;86.20;;;16.79;100.00;96285.44;6064085;23;20074;-64
2023/09/14 01:39:20;;;;;;;11.05;9.77;;;18.10;86.40;;;16.75;100.00;96281.63;6065956;23;20097;-65
2023/09/14 01:41:46;;;;;;;14.50;11.75;;;17.90;86.60;;;16.71;100.00;96291.84;6064097;23;20014;-64
2023/09/14 01:44:12;;;;;;;12.73;11.52;;;17.90;86.80;;;16.71;100.00;96288.41;6064313;23;20021;-64
2023/09/14 01:46:37;;;;;;;24.70;11.38;;;17.80;87.00;;;16.69;100.00;96295.78;6064773;23;20018;-65
2023/09/14 01:49:03;;;;;;;12.68;10.80;;;17.80;87.10;;;16.68;100.00;96297.63;6064222;23;20010;-65
2023/09/14 01:51:29;;;;;;;11.90;10.68;;;17.90;87.10;;;16.70;100.00;96289.44;6089624;23;20535;-64
2023/09/14 01:53:55;;;;;;;13.80;10.35;;;18.00;86.90;;;16.70;100.00;96295.56;6087950;23;20029;-65
2023/09/14 01:56:21;;;;;;;13.43;11.82;;;18.00;86.70;;;16.70;100.00;96295.56;6088206;23;20002;-65
2023/09/14 01:58:47;;;;;;;13.57;12.18;;;18.00;86.70;;;16.69;100.00;96291.28;6064731;23;20050;-64
2023/09/14 02:01:13;;;;;;;13.93;11.77;;;18.00;86.60;;;16.68;100.00;96286.19;6087505;23;20026;-65
2023/09/14 02:03:38;;;;;;;14.93;11.93;;;18.00;86.60;;;16.69;100.00;96290.47;6063869;23;20045;-65
2023/09/14 02:06:04;;;;;;;14.32;12.13;;;18.00;86.50;;;16.68;100.00;96291.50;6087947;23;20029;-65
2023/09/14 02:08:30;;;;;;;13.80;12.35;;;18.00;86.60;;;16.68;100.00;96288.84;6089535;23;20102;-64
2023/09/14 02:10:56;;;;;;;14.13;12.63;;;18.00;86.50;;;16.70;100.00;96297.41;6064631;23;20010;-65
2023/09/14 02:13:22;;;;;;;14.43;12.60;;;18.00;86.50;;;16.69;100.00;96293.13;6063995;23;20561;-65
2023/09/14 02:15:47;;;;;;;15.50;13.23;;;18.00;86.50;;;16.68;100.00;96300.28;6088237;23;20023;-65
2023/09/14 02:18:13;;;;;;;13.73;12.30;;;18.00;86.60;;;16.69;100.00;96298.44;6087525;23;20026;-65
2023/09/14 02:20:39;;;;;;;14.90;13.30;;;18.10;86.60;;;16.70;100.00;96300.06;6087722;23;20066;-65
2023/09/14 02:23:06;;;;;;;17.02;13.80;;;18.10;86.60;;;16.69;100.00;96303.75;6063568;23;20010;-65
2023/09/14 02:25:32;;;;;;;14.38;12.80;;;18.10;86.60;;;16.70;100.00;96300.06;6064381;23;20014;-65
2023/09/14 02:27:57;;;;;;;16.88;13.77;;;18.10;86.60;;;16.71;100.00;96299.03;6087659;23;20511;-64
2023/09/14 02:30:26;;;;;;;15.20;13.60;;;18.10;86.70;;;16.73;100.00;96304.91;6089538;23;20474;-64
2023/09/14 02:32:52;;;;;;;17.25;13.77;;;18.10;86.60;;;16.74;100.00;96314.50;6085639;23;20523;-64
2023/09/14 02:35:17;;;;;;;19.08;14.95;;;18.10;86.50;;;16.73;100.00;96320.84;6063856;23;20006;-64
2023/09/14 02:37:44;;;;;;;18.02;14.02;;;18.10;86.40;;;16.72;100.00;96314.72;6088560;23;20113;-64
2023/09/14 02:40:10;;;;;;;15.38;13.07;;;18.10;86.50;;;16.72;100.00;96313.91;6087695;23;20085;-64
2023/09/14 02:42:38;;;;;;;16.60;14.13;;;18.10;86.60;;;16.71;100.00;96313.13;6089720;23;20019;-64
2023/09/14 02:45:05;;;;;;;15.02;13.45;;;18.10;86.50;;;16.73;100.00;96315.53;6090069;23;20418;-64
2023/09/14 02:47:31;;;;;;;16.80;14.15;;;18.10;86.60;;;16.73;100.00;96315.53;6089742;23;20085;-64
2023/09/14 02:49:58;;;;;;;20.30;14.32;;;18.00;86.50;;;16.72;100.00;96319.22;6066597;23;20096;-64
2023/09/14 02:52:23;;;;;;;16.27;13.63;;;18.10;86.40;;;16.73;100.00;96328.81;6041956;23;20026;-64
2023/09/14 02:54:49;;;;;;;14.20;12.75;;;18.10;86.40;;;16.74;100.00;96317.16;6091224;23;20023;-64
2023/09/14 02:57:15;;;;;;;16.50;13.30;;;18.10;86.30;;;16.74;100.00;96320.63;6065676;23;20025;-64
2023/09/14 02:59:40;;;;;;;18.35;14.30;;;18.10;86.30;;;16.73;100.00;96315.53;6091180;23;20365;-64
2023/09/14 03:02:06;;;;;;;16.38;14.65;;;18.00;86.40;;;16.74;100.00;96322.47;6090393;23;20002;-65
2023/09/14 03:04:32;;;;;;;16.17;14.48;;;18.10;86.40;;;16.74;100.00;96320.63;6066879;23;20014;-64
2023/09/14 03:06:58;;;;;;;15.27;13.15;;;18.10;86.40;;;16.75;100.00;96314.31;6089868;23;20074;-64
2023/09/14 03:09:24;;;;;;;21.75;15.63;;;18.10;86.40;;;16.75;100.00;96314.31;6064761;23;20356;-64
2023/09/14 03:11:50;;;;;;;17.83;14.75;;;18.10;86.30;;;16.76;100.00;96315.94;6089941;23;20030;-64
2023/09/14 03:14:15;;;;;;;16.70;13.98;;;18.10;86.40;;;16.77;100.00;96316.75;6090825;23;20403;-65
2023/09/14 03:16:41;;;;;;;16.27;14.45;;;18.10;86.40;;;16.75;100.00;96311.66;6090430;23;20003;-65
2023/09/14 03:19:07;;;;;;;16.98;15.18;;;18.10;86.20;;;16.75;100.00;96314.31;6065548;23;20015;-64
2023/09/14 03:21:33;;;;;;;53.33;46.25;;;18.10;86.30;;;16.76;100.00;96309.81;6041455;23;20062;-64
2023/09/14 03:23:58;;;;;;;33.65;28.45;;;18.10;86.40;;;16.78;100.00;96318.38;6065731;23;20127;-64
2023/09/14 03:26:27;;;;;;;21.70;17.38;;;18.10;86.30;;;16.77;100.00;96317.56;6089790;23;20445;-64
2023/09/14 03:28:53;;;;;;;50.50;44.30;;;18.10;86.30;;;16.78;100.00;96316.53;6067155;23;20021;-64
2023/09/14 03:31:18;;;;;;;29.20;26.00;;;18.20;86.40;;;16.79;100.00;96320.00;6089188;23;20048;-64
2023/09/14 03:33:47;;;;;;;30.63;25.75;;;18.20;86.20;;;16.81;100.00;96328.53;6063329;23;20276;-64
2023/09/14 03:36:13;;;;;;;26.77;22.10;;;18.20;86.20;;;16.80;100.00;96322.44;6089281;23;20042;-64
2023/09/14 03:38:40;;;;;;;24.25;19.38;;;18.10;86.20;;;16.81;100.00;96328.53;6089549;23;20021;-64
2023/09/14 03:41:05;;;;;;;19.27;17.27;;;18.10;86.20;;;16.80;100.00;96337.56;6089951;23;20006;-64
2023/09/14 03:43:31;;;;;;;22.00;19.10;;;18.10;86.20;;;16.77;100.00;96328.19;6089580;23;20101;-64
2023/09/14 03:45:57;;;;;;;21.58;18.80;;;18.10;86.20;;;16.75;100.00;96332.91;6091006;23;20042;-63
2023/09/14 03:48:23;;;;;;;33.55;27.38;;;18.10;86.20;;;16.76;100.00;96331.06;6064872;23;20030;-64
2023/09/14 03:50:49;;;;;;;24.50;17.95;;;18.10;86.30;;;16.74;100.00;96341.06;6041578;23;20031;-63
2023/09/14 03:53:14;;;;;;;18.05;16.15;;;18.00;86.30;;;16.74;100.00;96338.41;6088461;23;20010;-63
2023/09/14 03:55:40;;;;;;;18.75;16.63;;;18.10;86.40;;;16.75;100.00;96340.06;6089691;23;20093;-64
2023/09/14 03:58:06;;;;;;;17.92;15.32;;;18.10;86.30;;;16.73;100.00;96339.44;6065092;23;20042;-63
2023/09/14 04:00:32;;;;;;;19.00;15.20;;;18.10;86.20;;;16.72;100.00;96341.28;6089234;23;20491;-64
2023/09/14 04:02:58;;;;;;;18.65;16.27;;;18.10;86.30;;;16.72;100.00;96335.16;6065523;23;20050;-63
2023/09/14 04:05:23;;;;;;;21.17;17.08;;;18.10;86.30;;;16.70;100.00;96338.06;6088834;23;20345;-64
2023/09/14 04:07:49;;;;;;;21.25;18.95;;;18.00;86.30;;;16.68;100.00;96345.44;6089968;23;20283;-64
2023/09/14 04:10:15;;;;;;;18.40;16.10;;;18.00;86.40;;;16.68;100.00;96339.31;6088796;23;20026;-64
2023/09/14 04:12:41;;;;;;;18.20;15.93;;;17.90;86.40;;;16.68;100.00;96352.59;6088921;23;20037;-64
2023/09/14 04:15:07;;;;;;;24.98;18.92;;;18.00;86.30;;;16.66;100.00;96351.97;6065002;23;20018;-63
2023/09/14 04:17:33;;;;;;;40.08;35.72;;;17.90;86.40;;;16.65;100.00;96347.69;6065230;23;20025;-64
2023/09/14 04:20:09;;;;;;;28.50;24.58;;;18.00;86.40;;;16.65;100.00;96355.66;6066171;23;20003;-63
2023/09/14 04:22:34;;;;;;;18.92;16.95;;;17.90;86.40;;;16.65;100.00;96348.50;6066979;23;20022;-64
2023/09/14 04:25:00;;;;;;;21.70;16.63;;;17.90;86.40;;;16.64;100.00;96349.53;6090759;23;20019;-63
2023/09/14 04:27:26;;;;;;;18.20;15.27;;;18.00;86.40;;;16.62;100.00;96356.09;6088650;23;20042;-64
2023/09/14 04:29:52;;;;;;;17.85;15.32;;;18.00;86.30;;;16.64;100.00;96354.03;6090941;23;20018;-63
2023/09/14 04:32:17;;;;;;;17.40;15.63;;;17.90;86.20;;;16.64;100.00;96359.34;6062768;23;20022;-64
2023/09/14 04:34:43;;;;;;;19.08;16.42;;;18.00;86.10;;;16.63;100.00;96368.34;6090114;23;20007;-64
2023/09/14 04:37:09;;;;;;;18.02;15.98;;;17.90;86.10;;;16.60;100.00;96363.47;6090505;23;20018;-62
2023/09/14 04:39:35;;;;;;;17.77;15.73;;;17.80;86.50;;;16.59;100.00;96370.63;6089038;23;20022;-64
2023/09/14 04:42:01;;;;;;;18.65;15.70;;;17.90;86.50;;;16.60;100.00;96371.44;6089035;23;20026;-64
2023/09/14 04:44:27;;;;;;;17.80;15.90;;;17.90;86.40;;;16.61;100.00;96370.41;6088940;23;20842;-63
2023/09/14 04:46:53;;;;;;;22.30;16.38;;;17.90;86.30;;;16.62;100.00;96366.72;6066140;23;20018;-63
2023/09/14 04:49:18;;;;;;;18.10;15.02;;;17.90;86.40;;;16.64;100.00;96367.31;6090666;23;20018;-65
2023/09/14 04:51:46;;;;;;;18.23;15.57;;;18.00;86.40;;;16.65;100.00;96371.59;6091148;23;20018;-64
2023/09/14 04:54:12;;;;;;;17.67;15.75;;;18.00;86.10;;;16.62;100.00;96380.00;6064853;23;20364;-63
2023/09/14 04:56:38;;;;;;;20.17;17.35;;;17.90;86.10;;;16.61;100.00;96363.25;6090225;23;20014;-63
2023/09/14 04:59:04;;;;;;;20.55;16.70;;;17.90;86.00;;;16.61;100.00;96365.09;6087636;23;20397;-63
2023/09/14 05:01:30;;;;;;;20.92;16.60;;;17.90;86.20;;;16.61;100.00;96373.06;6061477;23;20054;-65
2023/09/14 05:03:55;;;;;;;21.67;16.63;;;17.90;85.90;;;16.58;100.00;96373.50;6087025;23;20081;-65
2023/09/14 05:06:21;;;;;;;20.27;17.13;;;17.80;86.10;;;16.57;100.00;96378.03;6087731;23;20014;-65
2023/09/14 05:08:47;;;;;;;19.15;17.02;;;17.80;85.90;;;16.53;100.00;96375.00;6086973;23;20030;-64
2023/09/14 05:11:13;;;;;;;20.33;17.77;;;17.80;85.90;;;16.54;100.00;96384.59;6084731;23;20066;-64
2023/09/14 05:13:38;;;;;;;21.38;15.95;;;17.80;85.90;;;16.54;100.00;96379.28;6088491;23;20062;-65
2023/09/14 05:16:04;;;;;;;19.70;16.33;;;17.90;85.80;;;16.54;100.00;96370.50;6085524;23;20054;-65
2023/09/14 05:18:30;;;;;;;19.45;16.70;;;17.90;85.50;;;16.54;100.00;96371.31;6085992;23;20050;-66
2023/09/14 05:20:55;;;;;;;25.33;16.33;;;17.90;85.40;;;16.56;100.00;96367.63;6064760;23;20046;-66
2023/09/14 05:23:21;;;;;;;21.67;17.80;;;17.90;85.50;;;16.56;100.00;96376.41;6086016;23;20017;-65
2023/09/14 05:25:47;;;;;;;22.90;18.90;;;17.90;85.30;;;16.54;100.00;96375.81;6089267;23;20011;-66
2023/09/14 05:28:14;;;;;;;23.88;20.15;;;17.90;85.00;;;16.51;100.00;96376.22;6060953;23;20048;-65
2023/09/14 05:30:41;;;;;;;28.13;20.10;;;17.90;85.10;;;16.49;100.00;96387.06;6036619;23;20022;-66
2023/09/14 05:33:07;;;;;;;25.35;20.75;;;17.80;84.90;;;16.47;100.00;96394.44;6036403;23;20006;-66
2023/09/14 05:35:33;;;;;;;24.52;20.10;;;17.70;85.40;;;16.45;100.00;96393.84;6061880;23;20984;-65
2023/09/14 05:37:58;;;;;;;25.42;19.20;;;17.70;85.50;;;16.45;100.00;96393.84;6063533;23;20021;-64
2023/09/14 05:40:24;;;;;;;26.25;20.42;;;17.70;85.60;;;16.45;100.00;96396.50;6081521;23;20049;-64
2023/09/14 05:42:50;;;;;;;24.85;22.15;;;17.80;85.50;;;16.46;100.00;96400.78;6084355;23;20026;-67
2023/09/14 05:45:16;;;;;;;29.08;23.05;;;17.80;85.20;;;16.47;100.00;96399.75;6087653;23;20105;-65
2023/09/14 05:47:42;;;;;;;28.80;22.95;;;17.80;85.00;;;16.47;100.00;96402.41;6085780;23;20074;-65
2023/09/14 05:50:08;;;;;;;25.95;22.63;;;17.90;85.20;;;16.50;100.00;96401.97;6061842;23;20102;-67
2023/09/14 05:52:35;;;;;;;31.25;23.23;;;17.90;84.90;;;16.51;100.00;96403.59;6062876;23;20555;-65
2023/09/14 05:55:01;;;;;;;27.77;23.42;;;17.90;84.80;;;16.53;100.00;96406.03;6086608;23;20026;-66
2023/09/14 05:57:26;;;;;;;29.00;24.73;;;18.00;85.00;;;16.57;100.00;96411.72;6063415;23;20061;-67
2023/09/14 05:59:52;;;;;;;29.88;25.27;;;18.00;84.60;;;16.61;100.00;96423.53;6084594;23;20109;-65
2023/09/14 06:02:18;;;;;;;28.77;25.13;;;18.10;84.40;;;16.61;100.00;96410.25;6087958;23;20009;-67
2023/09/14 06:04:45;;;;;;;28.42;25.38;;;18.10;84.20;;;16.62;100.00;96410.03;6062943;23;20006;-68
2023/09/14 06:07:10;;;;;;;29.55;25.65;;;18.10;84.00;;;16.65;100.00;96412.25;6087226;23;20023;-67
2023/09/14 06:09:36;;;;;;;32.17;26.08;;;18.10;84.30;;;16.66;100.00;96427.19;6062467;23;20416;-68
2023/09/14 06:12:02;;;;;;;31.52;26.45;;;18.10;84.10;;;16.71;100.00;96418.56;6085784;23;20444;-71
2023/09/14 06:14:27;;;;;;;30.58;24.73;;;18.20;84.00;;;16.73;100.00;96422.63;6086508;23;20405;-67
2023/09/14 06:16:53;;;;;;;31.77;27.48;;;18.20;83.80;;;16.75;100.00;96425.06;6085164;23;20010;-66
2023/09/14 06:19:20;;;;;;;35.83;30.13;;;18.20;83.80;;;16.76;100.00;96424.84;6086577;23;20010;-68
2023/09/14 06:21:45;;;;;;;35.05;29.95;;;18.20;84.00;;;16.79;100.00;96420.94;6085826;23;20066;-65
2023/09/14 06:24:11;;;;;;;35.00;31.20;;;18.20;83.80;;;16.82;100.00;96431.13;6063283;23;20022;-66
2023/09/14 06:26:38;;;;;;;39.58;34.22;;;18.30;83.80;;;16.84;100.00;96423.75;6086954;23;20405;-68
2023/09/14 06:29:04;;;;;;;40.67;33.05;;;18.30;83.30;;;16.84;100.00;96429.06;6088366;23;20671;-67
2023/09/14 06:31:30;;;;;;;38.13;33.42;;;18.30;83.40;;;16.82;100.00;96423.16;6085211;23;20491;-67
2023/09/14 06:33:56;;;;;;;38.22;32.75;;;18.40;83.20;;;16.84;100.00;96429.06;6084855;23;20018;-66
2023/09/14 06:36:21;;;;;;;37.28;32.35;;;18.40;83.00;;;16.87;100.00;96431.28;6088048;23;20113;-67
2023/09/14 06:38:47;;;;;;;40.88;33.75;;;18.40;83.10;;;16.89;100.00;96431.88;6039367;23;20050;-67
2023/09/14 06:41:14;;;;;;;37.38;30.75;;;18.40;82.90;;;16.90;100.00;96430.81;6086525;23;20026;-67
2023/09/14 06:43:42;;;;;;;29.63;23.30;;;18.40;82.20;;;16.91;100.00;96429.78;6062731;23;20007;-66
2023/09/14 06:46:09;;;;;;;39.15;30.92;;;18.50;82.10;;;16.91;100.00;96429.78;6087388;23;20021;-66
2023/09/14 06:48:35;;;;;;;38.10;30.40;;;18.40;82.20;;;16.91;100.00;96429.78;6062436;23;20034;-66
2023/09/14 06:51:01;;;;;;;37.30;30.52;;;18.50;82.60;;;16.93;100.00;96432.22;6039599;23;20049;-67
2023/09/14 06:53:27;;;;;;;37.97;31.52;;;18.40;82.70;;;16.94;100.00;96439.97;6086515;23;20019;-65
2023/09/14 06:55:53;;;;;;;39.55;32.13;;;18.40;82.60;;;16.94;100.00;96445.28;6064286;23;20048;-65
2023/09/14 06:58:18;;;;;;;39.17;31.88;;;18.50;82.60;;;16.95;100.00;96446.91;6063456;23;20017;-65
2023/09/14 07:00:45;;;;;;;37.08;32.08;;;18.40;82.60;;;16.96;100.00;96439.75;6086264;23;20022;-64
2023/09/14 07:03:10;;;;;;;41.95;35.13;;;18.60;82.70;;;17.01;100.00;96443.41;6062588;23;20026;-73
2023/09/14 07:05:37;;;;;;;46.55;38.70;;;18.60;82.50;;;17.06;100.00;96448.88;6065982;23;20093;-70
2023/09/14 07:08:03;;;;;;;45.33;37.22;;;18.70;81.60;;;17.11;100.00;96448.19;6042286;23;20022;-69
2023/09/14 07:10:29;;;;;;;51.60;40.33;;;18.80;81.50;;;17.19;100.00;96445.22;6040470;23;20022;-71
2023/09/14 07:12:57;;;;;;;36.33;29.83;;;18.90;81.80;;;17.26;100.00;96440.66;6088503;23;20038;-71
2023/09/14 07:15:23;;;;;;;36.08;27.42;;;19.00;81.60;;;17.35;100.00;96443.81;6066141;23;20014;-70
2023/09/14 07:17:49;;;;;;;35.35;27.52;;;19.10;80.90;;;17.42;100.00;96453.34;6092290;23;20042;-70
2023/09/14 07:20:15;;;;;;;34.72;27.80;;;19.10;80.70;;;17.42;100.00;96441.88;6089172;23;20069;-66
2023/09/14 07:22:41;;;;;;;37.65;26.95;;;19.10;80.60;;;17.43;100.00;96443.53;6040019;23;20351;-69
2023/09/14 07:25:08;;;;;;;34.35;26.95;;;19.10;80.60;;;17.46;100.00;96448.41;6088530;23;20010;-68
2023/09/14 07:27:35;;;;;;;34.97;26.02;;;19.10;81.00;;;17.48;100.00;96450.84;6062905;23;20022;-69
2023/09/14 07:30:01;;;;;;;34.65;25.85;;;19.10;80.90;;;17.54;100.00;96452.59;6088126;23;20022;-65
2023/09/14 07:32:27;;;;;;;36.33;26.52;;;19.10;81.00;;;17.56;100.00;96458.50;6085412;23;20691;-65
2023/09/14 07:34:57;;;;;;;41.13;32.63;;;19.10;81.10;;;17.59;100.00;96453.53;6090541;23;20097;-67
2023/09/14 07:37:23;;;;;;;35.50;26.92;;;19.20;80.80;;;17.60;100.00;96455.16;6094816;23;20539;-65
2023/09/14 07:39:49;;;;;;;38.70;25.95;;;19.10;80.10;;;17.58;100.00;96457.25;6088032;23;20441;-67
2023/09/14 07:42:14;;;;;;;33.20;27.10;;;19.10;80.40;;;17.58;100.00;96454.59;6088173;23;20018;-66
2023/09/14 07:44:40;;;;;;;37.78;28.42;;;19.10;80.60;;;17.61;100.00;96466.63;6088318;23;20021;-68
2023/09/14 07:47:06;;;;;;;36.60;27.48;;;19.10;80.50;;;17.61;100.00;96458.66;6090877;23;20046;-67
2023/09/14 07:49:31;;;;;;;34.42;26.15;;;19.20;80.40;;;17.63;100.00;96462.69;6088907;23;20010;-69
2023/09/14 07:51:57;;;;;;;34.83;26.60;;;19.20;79.80;;;17.66;100.00;96462.28;6087828;23;20030;-68
2023/09/14 07:54:23;;;;;;;36.88;26.73;;;19.30;79.50;;;17.68;100.00;96467.41;6066534;23;20033;-69
2023/09/14 07:56:49;;;;;;;43.88;35.10;;;19.40;79.70;;;17.72;100.00;96469.38;6091696;23;20089;-68
2023/09/14 07:59:15;;;;;;;40.42;29.88;;;19.50;79.90;;;17.79;100.00;96463.97;6093676;23;20010;-67
2023/09/14 08:01:41;;;;;;;35.70;25.80;;;19.50;78.50;;;17.82;100.00;96468.84;6092670;23;20090;-69
2023/09/14 08:04:06;;;;;;;34.13;25.70;;;19.50;78.30;;;17.88;100.00;96467.13;6088256;23;20025;-69
2023/09/14 08:06:33;;;;;;;34.92;25.80;;;19.60;78.30;;;17.94;100.00;96468.91;6088250;23;20022;-68
2023/09/14 08:08:59;;;;;;;35.15;25.92;;;19.70;78.60;;;18.03;100.00;96475.50;6064498;23;20329;-67
2023/09/14 08:11:27;;;;;;;33.55;24.60;;;19.90;78.40;;;18.12;100.00;96468.84;6040348;23;20100;-67
2023/09/14 08:13:53;;;;;;;37.72;27.77;;;20.10;78.10;;;18.23;100.00;96470.72;6065228;23;20021;-66
2023/09/14 08:16:19;;;;;;;36.10;27.73;;;20.20;77.40;;;18.36;100.00;96473.19;6064675;23;20027;-66
2023/09/14 08:18:45;;;;;;;32.42;25.40;;;20.40;77.00;;;18.47;100.00;96470.75;6085976;23;20038;-65
2023/09/14 08:21:10;;;;;;;30.45;24.30;;;20.50;76.70;;;18.57;100.00;96476.34;6063693;23;20058;-68
2023/09/14 08:23:36;;;;;;;33.28;25.13;;;20.50;76.50;;;18.58;100.00;96477.97;6088084;23;20041;-66
2023/09/14 08:26:04;;;;;;;32.20;25.52;;;20.50;76.20;;;18.60;100.00;96476.69;6089514;23;20445;-66
2023/09/14 08:28:30;;;;;;;33.63;25.55;;;20.40;76.60;;;18.54;100.00;96480.25;6065335;23;20484;-65
2023/09/14 08:30:56;;;;;;;33.42;25.48;;;20.20;76.40;;;18.53;100.00;96475.16;6062070;23;20146;-67
2023/09/14 08:33:23;;;;;;;32.95;25.73;;;20.30;76.90;;;18.56;100.00;96477.41;6086000;23;20053;-65
2023/09/14 08:35:49;;;;;;;30.05;24.00;;;20.30;76.50;;;18.61;100.00;96475.66;6088169;23;20487;-67
2023/09/14 08:38:16;;;;;;;30.48;24.63;;;20.50;76.00;;;18.69;100.00;96474.53;6064548;23;20014;-65
2023/09/14 08:40:42;;;;;;;28.52;23.67;;;20.60;76.40;;;18.76;100.00;96480.53;6063889;23;20432;-67
2023/09/14 08:43:12;;;;;;;34.33;23.50;;;20.70;75.40;;;18.84;100.00;96485.56;6039575;23;20018;-65
2023/09/14 08:45:38;;;;;;;31.63;23.67;;;20.70;75.50;;;18.90;100.00;96492.63;6088004;23;20025;-67
2023/09/14 08:48:04;;;;;;;32.72;25.02;;;20.70;74.80;;;18.95;100.00;96495.38;6064421;23;20105;-65
2023/09/14 08:50:31;;;;;;;27.08;22.58;;;20.70;75.00;;;18.98;100.00;96491.44;6087910;23;20018;-65
2023/09/14 08:52:57;;;;;;;28.60;23.33;;;20.70;75.30;;;19.00;100.00;96496.53;6063924;23;20689;-64
2023/09/14 08:55:25;;;;;;;30.98;24.30;;;20.70;74.60;;;18.95;100.00;96490.06;6064137;23;20032;-66
2023/09/14 08:57:51;;;;;;;29.73;24.33;;;20.60;74.60;;;18.92;100.00;96485.19;6039836;23;20022;-66
2023/09/14 09:00:17;;;;;;;29.45;24.80;;;20.50;74.40;;;18.93;100.00;96483.34;6037273;23;20025;-65
2023/09/14 09:02:51;;;;;;;28.88;24.40;;;20.60;75.10;;;18.95;100.00;96487.41;6038875;23;20461;-67
2023/09/14 09:05:18;;;;;;;28.85;24.08;;;20.70;74.60;;;18.99;100.00;96490.41;6041290;23;20025;-67
2023/09/14 09:07:46;;;;;;;29.73;24.83;;;20.80;75.30;;;19.06;100.00;96487.66;6089331;23;20475;-65
2023/09/14 09:10:15;;;;;;;30.02;22.98;;;20.90;74.30;;;19.10;100.00;96476.28;6086643;23;20167;-65
2023/09/14 09:12:41;;;;;;;31.10;25.60;;;21.00;73.40;;;19.16;100.00;96483.31;6089140;23;20029;-68
2023/09/14 09:15:09;;;;;;;30.60;24.85;;;21.10;74.30;;;19.21;100.00;96490.63;6087976;23;20010;-68
2023/09/14 09:17:39;;;;;;;32.50;25.15;;;21.00;74.60;;;19.28;100.00;96488.66;6065494;23;20408;-65
2023/09/14 09:20:24;;;;;;;29.80;24.75;;;21.10;74.90;;;19.37;100.00;96487.25;6062407;23;20011;-67
2023/09/14 09:22:51;;;;;;;32.42;24.30;;;21.20;73.40;;;19.38;100.00;96488.88;6067639;23;20005;-66
2023/09/14 09:25:17;;;;;;;28.42;24.05;;;21.10;73.80;;;19.41;100.00;96488.41;6065104;23;20014;-65
2023/09/14 09:27:44;;;;;;;26.65;22.08;;;21.20;74.00;;;19.45;100.00;96489.53;6063450;23;20041;-68
2023/09/14 09:30:10;;;;;;;28.88;23.05;;;21.10;72.90;;;19.48;100.00;96489.09;6062135;23;20511;-65
2023/09/14 09:32:42;;;;;;;27.33;22.90;;;21.30;71.50;;;19.56;100.00;96490.59;6085078;23;20126;-67
2023/09/14 09:35:19;;;;;;;24.15;20.88;;;21.40;72.40;;;19.68;100.00;96493.22;6041069;23;20475;-65
2023/09/14 09:37:45;;;;;;;25.33;21.15;;;21.80;69.70;;;19.88;100.00;96489.09;6087454;23;20030;-68
2023/09/14 09:40:22;;;;;;;26.48;21.65;;;22.40;68.10;;;20.13;100.00;96486.09;6062975;23;20026;-68
2023/09/14 09:42:48;;;;;;;23.42;20.27;;;22.70;66.60;;;20.32;100.00;96493.91;6089138;23;20036;-71
2023/09/14 09:45:14;;;;;;;25.83;21.48;;;22.90;65.20;;;20.60;100.00;96487.75;6063732;23;20457;-69
2023/09/14 09:47:41;;;;;;;24.20;19.02;;;23.60;63.80;;;21.23;100.00;96479.31;6066551;23;20023;-69
2023/09/14 09:50:12;;;;;;;19.88;17.63;;;25.10;61.50;;;21.88;98.33;96467.84;6065263;23;20093;-70
2023/09/14 09:52:40;;;;;;;20.90;17.75;;;25.80;58.30;;;22.23;97.90;96477.34;6040493;23;20017;-70
2023/09/14 09:55:07;;;;;;;20.08;17.88;;;26.00;56.40;;;22.48;96.66;96488.31;6088178;23;20076;-70
2023/09/14 09:57:39;;;;;;;22.35;18.23;;;25.80;57.00;;;22.64;92.14;96477.72;6040540;23;20018;-70
2023/09/14 10:00:14;;;;;;;22.67;17.35;;;25.80;57.00;;;22.65;91.31;96477.47;6085111;23;20073;-69